createdAt,value
2023-05-14T00:00:30.024Z,5.90
2023-05-14T00:02:57.333Z,5.37
2023-05-14T00:05:24.815Z,9.60
2023-05-14T00:07:51.975Z,7.30
2023-05-14T00:10:20.713Z,6.60
2023-05-14T00:12:48.293Z,7.80
2023-05-14T00:15:15.397Z,8.83
2023-05-14T00:17:42.786Z,6.87
2023-05-14T00:20:12.199Z,8.87
2023-05-14T00:22:39.917Z,6.70
2023-05-14T00:25:08.165Z,7.33
2023-05-14T00:27:37.671Z,8.33
2023-05-14T00:30:09.156Z,7.17
2023-05-14T00:32:36.342Z,6.83
2023-05-14T00:35:04.517Z,7.13
2023-05-14T00:37:31.843Z,8.00
2023-05-14T00:39:58.912Z,7.23
2023-05-14T00:42:27.209Z,9.23
2023-05-14T00:44:54.280Z,6.93
2023-05-14T00:47:21.456Z,7.53
2023-05-14T00:49:48.586Z,8.07
2023-05-14T00:52:16.908Z,7.73
2023-05-14T00:54:46.899Z,7.60
2023-05-14T00:57:14.155Z,8.33
2023-05-14T00:59:42.767Z,9.03
2023-05-14T01:02:09.972Z,8.77
2023-05-14T01:04:38.493Z,7.70
2023-05-14T01:07:36.315Z,8.00
2023-05-14T01:10:17.541Z,8.43
2023-05-14T01:13:18.734Z,10.90
2023-05-14T01:15:47.764Z,12.23
2023-05-14T01:18:18.928Z,9.30
2023-05-14T01:20:46.481Z,8.93
2023-05-14T01:23:13.554Z,9.77
2023-05-14T01:25:41.489Z,13.80
2023-05-14T01:28:28.935Z,11.10
2023-05-14T01:31:12.224Z,10.07
2023-05-14T01:33:42.473Z,10.07
2023-05-14T01:36:11.053Z,10.43
2023-05-14T01:38:39.802Z,9.70
2023-05-14T01:41:07.289Z,10.23
2023-05-14T01:43:35.705Z,9.47
2023-05-14T01:46:05.110Z,12.50
2023-05-14T01:48:32.505Z,11.50
2023-05-14T01:50:59.577Z,13.73
2023-05-14T01:53:26.735Z,10.13
2023-05-14T01:55:53.774Z,11.10
2023-05-14T01:58:21.081Z,10.60
2023-05-14T02:00:48.395Z,10.17
2023-05-14T02:03:15.641Z,9.83
2023-05-14T02:05:42.671Z,9.87
2023-05-14T02:08:09.728Z,9.13
2023-05-14T02:10:36.814Z,9.47
2023-05-14T02:13:04.247Z,9.97
2023-05-14T02:15:31.349Z,9.77
2023-05-14T02:17:58.474Z,9.13
2023-05-14T02:20:25.762Z,11.50
2023-05-14T02:22:53.065Z,11.97
2023-05-14T02:25:21.240Z,13.63
2023-05-14T02:27:48.404Z,10.43
2023-05-14T02:30:15.821Z,10.60
2023-05-14T02:32:43.076Z,11.03
2023-05-14T02:35:10.390Z,9.83
2023-05-14T02:37:37.717Z,8.63
2023-05-14T02:40:05.485Z,13.50
2023-05-14T02:42:32.924Z,10.53
2023-05-14T02:45:00.192Z,12.27
2023-05-14T02:47:27.302Z,10.67
2023-05-14T02:49:54.420Z,11.53
2023-05-14T02:52:21.485Z,14.77
2023-05-14T02:54:48.808Z,11.20
2023-05-14T02:57:15.841Z,12.93
2023-05-14T02:59:43.077Z,13.07
2023-05-14T03:02:10.557Z,13.33
2023-05-14T03:04:38.042Z,13.30
2023-05-14T03:07:05.420Z,21.40
2023-05-14T03:09:32.673Z,14.40
2023-05-14T03:12:00.813Z,15.73
2023-05-14T03:14:27.856Z,12.97
2023-05-14T03:16:54.940Z,16.10
2023-05-14T03:19:22.024Z,14.57
2023-05-14T03:21:50.214Z,14.87
2023-05-14T03:24:17.240Z,16.60
2023-05-14T03:26:44.660Z,16.80
2023-05-14T03:29:11.704Z,15.10
2023-05-14T03:31:38.811Z,13.33
2023-05-14T03:34:06.162Z,14.27
2023-05-14T03:36:34.235Z,15.20
2023-05-14T03:39:01.286Z,15.27
2023-05-14T03:41:28.608Z,13.87
2023-05-14T03:43:55.719Z,11.97
2023-05-14T03:46:23.155Z,13.93
2023-05-14T03:48:50.278Z,13.37
2023-05-14T03:51:17.669Z,16.07
2023-05-14T03:53:44.725Z,13.03
2023-05-14T03:56:13.355Z,11.43
2023-05-14T03:58:40.803Z,14.03
2023-05-14T04:01:07.965Z,11.50
2023-05-14T04:03:35.216Z,12.83
2023-05-14T04:06:02.445Z,14.63
2023-05-14T04:08:29.534Z,11.60
2023-05-14T04:10:56.924Z,14.90
2023-05-14T04:13:24.106Z,12.10
2023-05-14T04:15:51.370Z,13.33
2023-05-14T04:18:18.543Z,12.67
2023-05-14T04:20:46.106Z,15.00
2023-05-14T04:23:13.198Z,11.37
2023-05-14T04:25:40.292Z,11.53
2023-05-14T04:28:07.360Z,12.13
2023-05-14T04:30:34.705Z,10.50
2023-05-14T04:33:02.487Z,12.30
2023-05-14T04:35:29.690Z,9.87
2023-05-14T04:37:56.790Z,10.10
2023-05-14T04:40:24.129Z,10.63
2023-05-14T04:42:51.545Z,10.03
2023-05-14T04:45:18.844Z,10.00
2023-05-14T04:47:46.822Z,10.77
2023-05-14T04:50:14.335Z,11.60
2023-05-14T04:52:42.116Z,11.77
2023-05-14T04:55:10.183Z,12.37
2023-05-14T04:57:37.302Z,14.80
2023-05-14T05:00:09.606Z,10.83
2023-05-14T05:02:36.697Z,14.47
2023-05-14T05:05:04.342Z,15.13
2023-05-14T05:07:31.647Z,14.00
2023-05-14T05:09:58.738Z,13.67
2023-05-14T05:12:26.218Z,13.27
2023-05-14T05:14:53.342Z,14.23
2023-05-14T05:17:20.445Z,12.97
2023-05-14T05:19:48.192Z,14.10
2023-05-14T05:22:15.296Z,12.93
2023-05-14T05:24:42.464Z,13.70
2023-05-14T05:27:09.640Z,11.80
2023-05-14T05:29:37.265Z,11.93
2023-05-14T05:32:04.964Z,14.10
2023-05-14T05:34:32.117Z,14.37
2023-05-14T05:36:59.259Z,15.33
2023-05-14T05:39:26.535Z,14.77
2023-05-14T05:41:54.570Z,12.97
2023-05-14T05:44:21.624Z,13.50
2023-05-14T05:46:49.112Z,18.97
2023-05-14T05:49:16.431Z,11.97
2023-05-14T05:51:43.689Z,12.53
2023-05-14T05:54:10.764Z,13.83
2023-05-14T05:56:38.030Z,15.37
2023-05-14T05:59:05.093Z,12.70
2023-05-14T06:01:32.561Z,14.27
2023-05-14T06:03:59.638Z,11.10
2023-05-14T06:06:26.746Z,13.77
2023-05-14T06:08:53.757Z,11.37
2023-05-14T06:11:21.950Z,13.57
2023-05-14T06:13:49.085Z,11.40
2023-05-14T06:16:16.416Z,12.03
2023-05-14T06:18:43.537Z,10.80
2023-05-14T06:21:10.667Z,11.43
2023-05-14T06:23:37.796Z,15.07
2023-05-14T06:26:05.040Z,10.73
2023-05-14T06:28:32.106Z,12.77
2023-05-14T06:30:59.410Z,10.67
2023-05-14T06:33:31.028Z,13.00
2023-05-14T06:36:03.922Z,15.67
2023-05-14T06:38:31.186Z,11.30
2023-05-14T06:40:58.226Z,12.27
2023-05-14T06:43:25.626Z,11.63
2023-05-14T06:45:52.676Z,11.23
2023-05-14T06:48:20.390Z,11.57
2023-05-14T06:50:48.972Z,10.10
2023-05-14T06:53:16.592Z,12.57
2023-05-14T06:55:43.734Z,10.00
2023-05-14T06:58:10.934Z,13.27
2023-05-14T07:00:38.015Z,10.03
2023-05-14T07:03:05.231Z,10.97
2023-05-14T07:05:32.503Z,10.23
2023-05-14T07:07:59.856Z,12.87
2023-05-14T07:10:27.128Z,11.73
2023-05-14T07:12:54.271Z,13.20
2023-05-14T07:15:21.662Z,13.00
2023-05-14T07:17:49.019Z,10.10
2023-05-14T07:20:16.172Z,10.33
2023-05-14T07:22:43.294Z,11.67
2023-05-14T07:25:10.681Z,11.67
2023-05-14T07:27:37.736Z,17.17
2023-05-14T07:30:05.487Z,14.20
2023-05-14T07:32:32.502Z,15.40
2023-05-14T07:35:00.020Z,15.40
2023-05-14T07:37:27.304Z,17.60
2023-05-14T07:39:54.493Z,20.67
2023-05-14T07:42:34.596Z,12.37
2023-05-14T07:45:04.048Z,15.87
2023-05-14T07:47:31.327Z,11.57
2023-05-14T07:49:58.660Z,12.37
2023-05-14T07:52:25.876Z,14.00
2023-05-14T07:54:53.060Z,12.70
2023-05-14T07:57:20.554Z,14.73
2023-05-14T07:59:48.770Z,12.20
2023-05-14T08:02:16.974Z,12.90
2023-05-14T08:04:44.626Z,11.77
2023-05-14T08:07:11.881Z,16.57
2023-05-14T08:09:39.052Z,18.73
2023-05-14T08:12:06.811Z,18.00
2023-05-14T08:14:33.940Z,17.77
2023-05-14T08:17:01.046Z,19.73
2023-05-14T08:19:28.539Z,12.87
2023-05-14T08:21:55.714Z,14.97
2023-05-14T08:24:22.845Z,12.82
2023-05-14T08:26:49.895Z,13.97
2023-05-14T08:29:17.074Z,15.27
2023-05-14T08:31:44.411Z,13.93
2023-05-14T08:34:11.487Z,14.50
2023-05-14T08:36:39.541Z,14.73
2023-05-14T08:39:09.688Z,14.43
2023-05-14T08:41:37.768Z,12.37
2023-05-14T08:44:33.052Z,11.73
2023-05-14T08:47:00.764Z,12.07
2023-05-14T08:49:46.406Z,14.30
2023-05-14T08:52:14.785Z,11.53
2023-05-14T08:54:41.859Z,14.20
2023-05-14T08:57:13.152Z,12.87
2023-05-14T08:59:41.076Z,12.90
2023-05-14T09:02:11.696Z,14.90
2023-05-14T09:04:39.954Z,14.03
2023-05-14T09:07:08.056Z,11.50
2023-05-14T09:09:35.497Z,12.37
2023-05-14T09:12:02.585Z,13.43
2023-05-14T09:14:29.645Z,12.47
2023-05-14T09:16:57.223Z,13.77
2023-05-14T09:19:25.000Z,14.07
2023-05-14T09:21:52.103Z,15.43
2023-05-14T09:24:24.172Z,15.27
2023-05-14T09:26:56.418Z,14.37
2023-05-14T09:29:30.148Z,16.53
2023-05-14T09:31:58.962Z,14.67
2023-05-14T09:34:31.014Z,16.77
2023-05-14T09:37:09.236Z,15.13
2023-05-14T09:39:37.812Z,13.77
2023-05-14T09:42:05.648Z,11.33
2023-05-14T09:44:32.876Z,12.90
2023-05-14T09:46:59.974Z,10.00
2023-05-14T09:49:27.219Z,8.70
2023-05-14T09:51:54.377Z,9.87
2023-05-14T09:54:21.665Z,7.77
2023-05-14T09:56:48.700Z,7.40
2023-05-14T09:59:15.849Z,9.40
2023-05-14T10:01:44.414Z,9.93
2023-05-14T10:04:12.645Z,9.10
2023-05-14T10:06:41.991Z,10.33
2023-05-14T10:09:19.397Z,7.90
2023-05-14T10:11:50.384Z,9.20
2023-05-14T10:14:25.025Z,8.20
2023-05-14T10:16:53.533Z,9.37
2023-05-14T10:19:23.762Z,7.73
2023-05-14T10:21:57.520Z,8.17
2023-05-14T10:24:26.009Z,8.50
2023-05-14T10:26:53.793Z,8.33
2023-05-14T10:29:31.385Z,8.50
2023-05-14T10:31:58.608Z,6.70
2023-05-14T10:34:41.092Z,7.10
2023-05-14T10:37:16.735Z,6.30
2023-05-14T10:39:46.375Z,6.30
2023-05-14T10:42:19.313Z,5.30
2023-05-14T10:44:50.318Z,5.83
2023-05-14T10:47:20.039Z,4.90
2023-05-14T10:49:50.630Z,3.97
2023-05-14T10:52:19.571Z,4.33
2023-05-14T10:54:54.618Z,4.23
2023-05-14T10:57:23.577Z,3.10
2023-05-14T10:59:54.926Z,3.40
2023-05-14T11:02:43.618Z,3.17
2023-05-14T11:05:17.989Z,3.73
2023-05-14T11:07:50.196Z,4.13
2023-05-14T11:10:22.130Z,4.40
2023-05-14T11:12:51.848Z,4.27
2023-05-14T11:15:21.273Z,4.50
2023-05-14T11:17:49.934Z,4.87
2023-05-14T11:20:17.936Z,5.43
2023-05-14T11:22:46.577Z,5.03
2023-05-14T11:25:15.021Z,7.03
2023-05-14T11:27:44.539Z,5.77
2023-05-14T11:30:19.920Z,6.73
2023-05-14T11:32:48.924Z,5.87
2023-05-14T11:35:17.215Z,4.53
2023-05-14T11:37:49.623Z,5.53
2023-05-14T11:40:17.190Z,7.93
2023-05-14T11:42:44.528Z,8.50
2023-05-14T11:45:13.182Z,8.57
2023-05-14T11:47:42.837Z,6.60
2023-05-14T11:50:11.283Z,4.73
2023-05-14T11:52:41.078Z,5.17
2023-05-14T11:55:12.751Z,6.57
2023-05-14T11:57:41.160Z,3.23
2023-05-14T12:00:21.546Z,2.30
2023-05-14T12:02:52.065Z,1.93
2023-05-14T12:05:19.436Z,1.73
2023-05-14T12:07:47.819Z,2.00
2023-05-14T12:10:15.726Z,2.40
2023-05-14T12:12:47.234Z,1.50
2023-05-14T12:15:15.454Z,2.27
2023-05-14T12:17:42.527Z,2.20
2023-05-14T12:20:11.171Z,2.23
2023-05-14T12:22:38.862Z,2.87
2023-05-14T12:25:12.576Z,2.97
2023-05-14T12:27:40.121Z,9.37
2023-05-14T12:32:42.136Z,2.63
2023-05-14T12:35:09.952Z,3.30
2023-05-14T12:37:37.796Z,3.40
2023-05-14T12:40:09.388Z,2.83
2023-05-14T12:42:37.482Z,3.00
2023-05-14T12:45:08.100Z,5.90
2023-05-14T12:47:36.562Z,6.13
2023-05-14T12:50:04.177Z,3.00
2023-05-14T12:55:01.573Z,3.17
2023-05-14T12:57:29.974Z,3.27
2023-05-14T12:59:57.841Z,2.93
2023-05-14T13:02:25.084Z,5.43
2023-05-14T13:04:52.186Z,3.43
2023-05-14T13:07:19.270Z,2.97
2023-05-14T13:09:46.320Z,3.17
2023-05-14T13:12:13.482Z,2.87
2023-05-14T13:14:41.068Z,3.80
2023-05-14T13:17:08.657Z,2.83
2023-05-14T13:19:36.181Z,5.57
2023-05-14T13:22:03.833Z,4.03
2023-05-14T13:24:31.317Z,3.53
2023-05-14T13:26:58.875Z,2.73
2023-05-14T13:29:26.300Z,2.37
2023-05-14T13:31:53.782Z,3.30
2023-05-14T13:34:20.844Z,2.30
2023-05-14T13:36:49.896Z,4.07
2023-05-14T13:39:18.095Z,4.47
2023-05-14T13:41:45.722Z,2.97
2023-05-14T13:44:13.129Z,2.30
2023-05-14T13:46:40.670Z,2.67
2023-05-14T13:49:08.086Z,2.83
2023-05-14T13:51:35.976Z,2.53
2023-05-14T13:54:03.548Z,2.70
2023-05-14T13:56:30.823Z,3.27
2023-05-14T13:58:57.935Z,2.73
2023-05-14T14:01:25.737Z,3.00
2023-05-14T14:03:52.844Z,2.80
2023-05-14T14:06:20.195Z,3.03
2023-05-14T14:08:47.340Z,2.83
2023-05-14T14:11:14.525Z,2.50
2023-05-14T14:13:41.610Z,2.60
2023-05-14T14:16:09.116Z,2.47
2023-05-14T14:18:36.248Z,3.40
2023-05-14T14:21:03.459Z,4.10
2023-05-14T14:23:30.514Z,2.13
2023-05-14T14:25:58.108Z,2.10
2023-05-14T14:28:25.332Z,4.10
2023-05-14T14:30:52.521Z,2.03
2023-05-14T14:33:19.564Z,1.83
2023-05-14T14:35:46.778Z,1.63
2023-05-14T14:38:14.216Z,2.17
2023-05-14T14:40:41.316Z,1.80
2023-05-14T14:43:08.398Z,1.70
2023-05-14T14:45:35.531Z,1.60
2023-05-14T14:48:28.888Z,2.10
2023-05-14T14:50:56.168Z,2.93
2023-05-14T14:53:24.608Z,5.07
2023-05-14T14:55:52.007Z,2.07
2023-05-14T14:58:20.554Z,2.07
2023-05-14T15:00:48.647Z,2.27
2023-05-14T15:03:16.126Z,2.00
2023-05-14T15:05:43.511Z,2.67
2023-05-14T15:08:10.808Z,3.07
2023-05-14T15:10:38.449Z,2.03
2023-05-14T15:13:06.852Z,1.90
2023-05-14T15:15:35.259Z,1.60
2023-05-14T15:18:03.598Z,2.83
2023-05-14T15:20:30.900Z,2.20
2023-05-14T15:22:58.083Z,3.53
2023-05-14T15:25:26.414Z,3.20
2023-05-14T15:27:53.729Z,2.60
2023-05-14T15:30:21.101Z,2.73
2023-05-14T15:32:48.317Z,2.40
2023-05-14T15:35:15.691Z,3.10
2023-05-14T15:37:44.715Z,2.50
2023-05-14T15:40:12.579Z,5.93
2023-05-14T15:42:43.801Z,3.03
2023-05-14T15:45:13.116Z,2.90
2023-05-14T15:47:41.144Z,4.30
2023-05-14T15:50:09.174Z,5.07
2023-05-14T15:52:36.730Z,5.97
2023-05-14T15:55:06.184Z,3.07
2023-05-14T15:57:33.433Z,3.53
2023-05-14T16:00:00.780Z,2.30
2023-05-14T16:02:30.619Z,4.73
2023-05-14T16:04:57.977Z,2.47
2023-05-14T16:07:25.110Z,2.80
2023-05-14T16:09:53.596Z,2.67
2023-05-14T16:12:20.978Z,2.67
2023-05-14T16:14:48.342Z,3.20
2023-05-14T16:17:15.849Z,3.30
2023-05-14T16:19:43.351Z,2.27
2023-05-14T16:22:10.976Z,4.43
2023-05-14T16:24:38.440Z,2.67
2023-05-14T16:29:33.551Z,3.57
2023-05-14T16:32:01.154Z,2.70
2023-05-14T16:34:28.767Z,2.30
2023-05-14T16:36:56.241Z,4.83
2023-05-14T16:39:23.834Z,6.63
2023-05-14T16:41:51.248Z,2.77
2023-05-14T16:44:18.760Z,3.93
2023-05-14T16:46:46.231Z,3.40
2023-05-14T16:49:14.215Z,2.97
2023-05-14T16:51:43.262Z,3.83
2023-05-14T16:54:10.727Z,7.67
2023-05-14T16:56:38.152Z,6.70
2023-05-14T16:59:06.946Z,5.23
2023-05-14T17:01:34.294Z,6.87
2023-05-14T17:04:01.466Z,3.50
2023-05-14T17:06:28.610Z,4.40
2023-05-14T17:08:55.960Z,3.17
2023-05-14T17:11:23.038Z,5.30
2023-05-14T17:13:50.103Z,5.43
2023-05-14T17:16:17.181Z,6.60
2023-05-14T17:18:45.854Z,3.97
2023-05-14T17:21:12.948Z,2.13
2023-05-14T17:23:40.129Z,2.77
2023-05-14T17:26:07.221Z,1.97
2023-05-14T17:28:34.524Z,3.17
2023-05-14T17:31:02.191Z,4.00
2023-05-14T17:33:29.438Z,3.70
2023-05-14T17:35:56.518Z,2.70
2023-05-14T17:38:24.987Z,5.27
2023-05-14T17:40:52.128Z,3.73
2023-05-14T17:43:19.271Z,5.03
2023-05-14T17:45:53.768Z,4.07
2023-05-14T17:48:23.011Z,4.80
2023-05-14T17:50:51.697Z,7.67
2023-05-14T17:53:18.946Z,3.10
2023-05-14T17:55:46.146Z,5.83
2023-05-14T17:58:15.480Z,3.73
2023-05-14T18:00:43.714Z,5.93
2023-05-14T18:03:11.860Z,4.23
2023-05-14T18:05:39.186Z,3.10
2023-05-14T18:08:06.257Z,3.07
2023-05-14T18:10:33.403Z,3.33
2023-05-14T18:13:00.561Z,4.60
2023-05-14T18:15:28.079Z,3.67
2023-05-14T18:17:55.381Z,4.00
2023-05-14T18:20:22.511Z,4.97
2023-05-14T18:22:50.874Z,4.23
2023-05-14T18:25:18.321Z,4.07
2023-05-14T18:27:45.747Z,3.50
2023-05-14T18:30:14.727Z,3.50
2023-05-14T18:32:43.982Z,9.10
2023-05-14T18:35:12.631Z,8.40
2023-05-14T18:37:39.998Z,5.90
2023-05-14T18:40:09.793Z,3.40
2023-05-14T18:42:36.845Z,3.93
2023-05-14T18:45:04.605Z,5.63
2023-05-14T18:47:32.660Z,5.73
2023-05-14T18:50:02.004Z,5.57
2023-05-14T18:52:29.413Z,5.83
2023-05-14T18:54:56.592Z,7.53
2023-05-14T18:57:23.711Z,5.77
2023-05-14T18:59:50.951Z,7.20
2023-05-14T19:02:18.327Z,9.50
2023-05-14T19:04:52.368Z,5.60
2023-05-14T19:07:21.194Z,8.83
2023-05-14T19:09:48.497Z,7.23
2023-05-14T19:12:16.345Z,8.10
2023-05-14T19:14:43.585Z,6.77
2023-05-14T19:17:11.442Z,6.73
2023-05-14T19:19:39.447Z,8.45
2023-05-14T19:22:06.946Z,10.20
2023-05-14T19:24:34.155Z,5.60
2023-05-14T19:27:01.473Z,7.60
2023-05-14T19:29:28.752Z,7.27
2023-05-14T19:31:56.072Z,7.43
2023-05-14T19:34:23.316Z,5.83
2023-05-14T19:36:50.797Z,5.47
2023-05-14T19:39:17.920Z,4.23
2023-05-14T19:41:45.205Z,9.27
2023-05-14T19:44:12.296Z,6.10
2023-05-14T19:46:39.710Z,4.93
2023-05-14T19:49:06.866Z,7.43
2023-05-14T19:51:34.003Z,5.07
2023-05-14T19:54:01.310Z,5.63
2023-05-14T19:56:28.507Z,5.30
2023-05-14T19:58:55.635Z,5.73
2023-05-14T20:01:22.794Z,5.97
2023-05-14T20:03:49.951Z,10.03
2023-05-14T20:06:17.647Z,6.83
2023-05-14T20:08:47.513Z,5.57
2023-05-14T20:11:15.898Z,6.30
2023-05-14T20:13:43.027Z,6.77
2023-05-14T20:16:10.660Z,6.73
2023-05-14T20:18:37.949Z,7.03
2023-05-14T20:21:05.918Z,5.43
2023-05-14T20:23:33.828Z,4.77
2023-05-14T20:26:02.604Z,6.43
2023-05-14T20:28:30.003Z,5.63
2023-05-14T20:30:59.136Z,8.17
2023-05-14T20:33:27.162Z,5.17
2023-05-14T20:35:54.534Z,6.07
2023-05-14T20:38:21.956Z,5.80
2023-05-14T20:40:49.223Z,5.20
2023-05-14T20:43:16.443Z,7.97
2023-05-14T20:45:43.832Z,6.97
2023-05-14T20:48:12.950Z,6.30
2023-05-14T20:50:40.056Z,6.43
2023-05-14T20:53:07.181Z,6.43
2023-05-14T20:55:34.636Z,12.80
2023-05-14T20:58:01.747Z,7.80
2023-05-14T21:00:28.876Z,6.27
2023-05-14T21:02:56.905Z,7.30
2023-05-14T21:05:24.469Z,10.43
2023-05-14T21:07:51.698Z,5.17
2023-05-14T21:10:18.975Z,8.07
2023-05-14T21:12:45.993Z,8.07
2023-05-14T21:15:13.163Z,9.07
2023-05-14T21:17:40.259Z,6.43
2023-05-14T21:20:08.230Z,7.17
2023-05-14T21:22:35.316Z,9.63
2023-05-14T21:25:02.456Z,7.73
2023-05-14T21:27:29.480Z,7.30
2023-05-14T21:29:56.561Z,8.73
2023-05-14T21:32:24.018Z,8.17
2023-05-14T21:34:51.309Z,8.13
2023-05-14T21:37:18.557Z,7.50
2023-05-14T21:39:45.727Z,7.37
2023-05-14T21:42:12.854Z,7.33
2023-05-14T21:44:39.883Z,9.73
2023-05-14T21:47:07.900Z,6.00
2023-05-14T21:49:35.665Z,6.60
2023-05-14T21:52:03.212Z,7.43
2023-05-14T21:54:30.321Z,7.93
2023-05-14T21:56:57.608Z,6.50
2023-05-14T21:59:24.741Z,9.57
2023-05-14T22:02:06.247Z,9.07
2023-05-14T22:04:35.439Z,12.40
2023-05-14T22:07:03.262Z,7.40
2023-05-14T22:09:30.609Z,7.83
2023-05-14T22:11:58.601Z,8.43
2023-05-14T22:14:27.401Z,9.97
2023-05-14T22:16:54.646Z,9.43
2023-05-14T22:19:22.432Z,9.27
2023-05-14T22:21:49.632Z,7.70
2023-05-14T22:24:16.747Z,9.47
2023-05-14T22:26:44.035Z,6.60
2023-05-14T22:29:11.152Z,9.60
2023-05-14T22:31:38.399Z,7.33
2023-05-14T22:34:05.709Z,8.03
2023-05-14T22:36:32.777Z,12.17
2023-05-14T22:38:59.864Z,9.43
2023-05-14T22:41:26.981Z,9.03
2023-05-14T22:43:54.275Z,9.37
2023-05-14T22:46:21.485Z,8.03
2023-05-14T22:48:49.266Z,11.60
2023-05-14T22:51:16.739Z,9.80
2023-05-14T22:53:44.027Z,13.53
2023-05-14T22:56:11.143Z,8.80
2023-05-14T22:58:38.329Z,15.97
2023-05-14T23:01:05.670Z,9.63
2023-05-14T23:03:32.788Z,8.27
2023-05-14T23:05:59.949Z,10.83
2023-05-14T23:08:27.075Z,11.00
2023-05-14T23:10:54.659Z,12.80
2023-05-14T23:13:21.840Z,9.30
2023-05-14T23:15:49.064Z,14.80
2023-05-14T23:18:16.232Z,15.73
2023-05-14T23:20:43.886Z,14.53
2023-05-14T23:23:10.982Z,13.83
2023-05-14T23:25:37.978Z,15.40
2023-05-14T23:28:05.089Z,12.93
2023-05-14T23:30:32.054Z,10.67
2023-05-14T23:32:59.177Z,10.50
2023-05-14T23:35:26.426Z,11.77
2023-05-14T23:37:55.357Z,11.90
2023-05-14T23:40:22.401Z,12.53
2023-05-14T23:42:49.519Z,10.93
2023-05-14T23:45:16.794Z,10.93
2023-05-14T23:47:44.074Z,10.13
2023-05-14T23:50:11.261Z,12.37
2023-05-14T23:52:38.501Z,10.70
2023-05-14T23:55:06.473Z,11.57
2023-05-14T23:57:33.605Z,10.47
